createdAt,value
2019-05-01T00:00:43.623Z,57.51
2019-05-01T00:01:43.626Z,57.84
2019-05-01T00:02:43.618Z,57.95
2019-05-01T00:03:43.609Z,57.84
2019-05-01T00:04:43.580Z,58.39
2019-05-01T00:05:43.581Z,58.60
2019-05-01T00:06:43.552Z,58.50
2019-05-01T00:07:43.546Z,58.50
2019-05-01T00:08:43.561Z,58.50
2019-05-01T00:09:43.557Z,58.29
2019-05-01T00:10:43.526Z,58.39
2019-05-01T00:11:43.496Z,58.60
2019-05-01T00:12:43.485Z,58.94
2019-05-01T00:13:55.882Z,59.04
2019-05-01T00:14:43.469Z,58.62
2019-05-01T00:15:43.475Z,59.04
2019-05-01T00:16:43.447Z,59.14
2019-05-01T00:17:43.440Z,59.25
2019-05-01T00:18:43.430Z,59.80
2019-05-01T00:19:43.412Z,59.59
2019-05-01T00:20:43.412Z,59.25
2019-05-01T00:21:43.387Z,59.90
2019-05-01T00:22:43.380Z,59.59
2019-05-01T00:23:43.364Z,59.38
2019-05-01T00:24:43.358Z,59.59
2019-05-01T00:25:43.340Z,59.51
2019-05-01T00:26:43.347Z,60.45
2019-05-01T00:27:43.326Z,60.35
2019-05-01T00:28:43.308Z,60.35
2019-05-01T00:29:43.299Z,60.66
2019-05-01T00:30:43.285Z,60.55
2019-05-01T00:31:43.317Z,60.45
2019-05-01T00:32:43.268Z,61.28
2019-05-01T00:33:43.276Z,61.28
2019-05-01T00:34:43.248Z,61.18
2019-05-01T00:35:43.230Z,61.49
2019-05-01T00:36:43.223Z,61.80
2019-05-01T00:37:43.214Z,61.21
2019-05-01T00:38:43.201Z,60.66
2019-05-01T00:39:43.184Z,60.45
2019-05-01T00:40:43.198Z,60.66
2019-05-01T00:41:43.165Z,60.55
2019-05-01T00:42:43.168Z,60.35
2019-05-01T00:43:43.146Z,60.55
2019-05-01T00:44:56.015Z,60.45
2019-05-01T00:45:43.121Z,60.45
2019-05-01T00:46:43.108Z,59.82
2019-05-01T00:47:43.147Z,59.51
2019-05-01T00:48:43.089Z,60.24
2019-05-01T00:49:43.074Z,60.55
2019-05-01T00:50:43.063Z,60.24
2019-05-01T00:51:43.063Z,60.55
2019-05-01T00:52:43.111Z,60.55
2019-05-01T00:53:43.081Z,60.37
2019-05-01T00:54:43.027Z,60.45
2019-05-01T00:55:43.026Z,60.66
2019-05-01T00:56:43.004Z,60.35
2019-05-01T00:57:42.986Z,61.07
2019-05-01T00:58:42.998Z,60.45
2019-05-01T00:59:42.986Z,60.78
2019-05-01T01:00:43.522Z,60.45
2019-05-01T01:01:42.947Z,60.66
2019-05-01T01:02:42.936Z,60.76
2019-05-01T01:03:42.922Z,60.35
2019-05-01T01:04:42.941Z,60.47
2019-05-01T01:05:42.937Z,60.58
2019-05-01T01:06:42.885Z,60.37
2019-05-01T01:07:42.881Z,61.00
2019-05-01T01:08:42.866Z,62.14
2019-05-01T01:09:42.855Z,61.86
2019-05-01T01:10:42.854Z,62.17
2019-05-01T01:11:42.838Z,62.07
2019-05-01T01:12:42.819Z,62.17
2019-05-01T01:13:42.808Z,62.27
2019-05-01T01:14:42.804Z,62.07
2019-05-01T01:15:55.065Z,62.19
2019-05-01T01:16:42.789Z,62.41
2019-05-01T01:17:42.770Z,62.41
2019-05-01T01:18:42.775Z,62.51
2019-05-01T01:19:42.745Z,62.93
2019-05-01T01:20:42.753Z,62.30
2019-05-01T01:21:42.768Z,62.41
2019-05-01T01:22:42.714Z,62.41
2019-05-01T01:23:42.707Z,62.30
2019-05-01T01:24:42.711Z,62.41
2019-05-01T01:25:42.697Z,62.62
2019-05-01T01:26:42.670Z,62.51
2019-05-01T01:27:42.699Z,62.85
2019-05-01T01:28:42.645Z,62.72
2019-05-01T01:29:42.676Z,62.54
2019-05-01T01:30:55.154Z,62.96
2019-05-01T01:31:43.611Z,63.06
2019-05-01T01:32:42.617Z,62.93
2019-05-01T01:33:42.602Z,63.17
2019-05-01T01:34:42.579Z,63.37
2019-05-01T01:35:42.588Z,64.42
2019-05-01T01:36:42.563Z,63.06
2019-05-01T01:37:42.546Z,64.21
2019-05-01T01:38:42.546Z,64.21
2019-05-01T01:39:42.551Z,63.89
2019-05-01T01:40:42.512Z,63.89
2019-05-01T01:41:42.507Z,63.27
2019-05-01T01:42:42.497Z,63.89
2019-05-01T01:43:42.522Z,64.11
2019-05-01T01:44:42.481Z,63.48
2019-05-01T01:45:42.466Z,63.68
2019-05-01T01:46:55.554Z,63.71
2019-05-01T01:47:42.456Z,64.03
2019-05-01T01:48:42.435Z,63.71
2019-05-01T01:49:42.478Z,63.58
2019-05-01T01:50:42.410Z,63.58
2019-05-01T01:51:42.400Z,63.68
2019-05-01T01:52:42.390Z,63.79
2019-05-01T01:53:42.370Z,64.31
2019-05-01T01:54:42.391Z,64.45
2019-05-01T01:55:42.386Z,64.55
2019-05-01T01:56:42.342Z,64.55
2019-05-01T01:57:42.343Z,64.65
2019-05-01T01:58:42.398Z,65.07
2019-05-01T01:59:42.363Z,64.94
2019-05-01T02:00:42.292Z,64.97
2019-05-01T02:01:42.328Z,64.86
2019-05-01T02:02:42.317Z,64.97
2019-05-01T02:03:42.261Z,64.97
2019-05-01T02:04:42.256Z,64.65
2019-05-01T02:05:42.243Z,64.23
2019-05-01T02:06:42.235Z,64.31
2019-05-01T02:07:42.257Z,63.48
2019-05-01T02:08:42.205Z,64.42
2019-05-01T02:09:42.200Z,63.45
2019-05-01T02:10:43.179Z,64.00
2019-05-01T02:11:42.170Z,63.48
2019-05-01T02:12:42.165Z,64.39
2019-05-01T02:13:42.156Z,63.24
2019-05-01T02:14:42.143Z,63.13
2019-05-01T02:15:42.132Z,62.93
2019-05-01T02:16:42.121Z,62.72
2019-05-01T02:17:55.836Z,62.30
2019-05-01T02:18:42.135Z,62.48
2019-05-01T02:19:42.095Z,61.86
2019-05-01T02:20:42.079Z,61.96
2019-05-01T02:21:42.077Z,62.07
2019-05-01T02:22:42.061Z,61.96
2019-05-01T02:23:42.043Z,61.76
2019-05-01T02:24:42.096Z,61.83
2019-05-01T02:25:42.021Z,61.83
2019-05-01T02:26:42.010Z,61.83
2019-05-01T02:27:42.017Z,61.83
2019-05-01T02:28:41.981Z,62.35
2019-05-01T02:29:41.983Z,61.69
2019-05-01T02:30:42.000Z,60.97
2019-05-01T02:31:41.950Z,61.80
2019-05-01T02:32:41.945Z,61.59
2019-05-01T02:33:41.936Z,61.38
2019-05-01T02:34:41.917Z,61.36
2019-05-01T02:35:41.920Z,61.18
2019-05-01T02:36:41.942Z,61.57
2019-05-01T02:37:41.887Z,61.57
2019-05-01T02:38:41.890Z,62.29
2019-05-01T02:39:41.866Z,61.46
2019-05-01T02:40:41.868Z,62.22
2019-05-01T02:41:41.938Z,61.98
2019-05-01T02:42:41.837Z,62.08
2019-05-01T02:43:41.825Z,62.19
2019-05-01T02:44:41.891Z,62.19
2019-05-01T02:45:41.801Z,61.88
2019-05-01T02:46:41.825Z,61.77
2019-05-01T02:47:41.822Z,61.88
2019-05-01T02:48:54.325Z,62.19
2019-05-01T02:49:41.754Z,61.88
2019-05-01T02:50:41.744Z,61.88
2019-05-01T02:51:41.743Z,62.29
2019-05-01T02:52:41.737Z,62.29
2019-05-01T02:53:41.747Z,61.88
2019-05-01T02:54:41.706Z,62.50
2019-05-01T02:55:41.690Z,62.29
2019-05-01T02:56:41.691Z,62.50
2019-05-01T02:57:41.664Z,62.50
2019-05-01T02:58:41.660Z,62.29
2019-05-01T02:59:41.673Z,62.71
2019-05-01T03:00:41.628Z,62.29
2019-05-01T03:01:46.986Z,62.40
2019-05-01T03:02:42.607Z,62.40
2019-05-01T03:03:41.624Z,62.50
2019-05-01T03:04:41.587Z,62.37
2019-05-01T03:05:41.613Z,62.47
2019-05-01T03:06:41.567Z,62.37
2019-05-01T03:07:41.560Z,62.47
2019-05-01T03:08:41.547Z,62.26
2019-05-01T03:09:41.532Z,62.13
2019-05-01T03:10:41.524Z,62.26
2019-05-01T03:11:41.523Z,62.37
2019-05-01T03:12:41.502Z,62.24
2019-05-01T03:13:41.507Z,61.97
2019-05-01T03:14:41.474Z,60.57
2019-05-01T03:15:41.463Z,58.44
2019-05-01T03:16:41.453Z,57.01
2019-05-01T03:17:41.455Z,54.50
2019-05-01T03:18:41.449Z,53.39
2019-05-01T03:19:53.942Z,52.65
2019-05-01T03:20:41.416Z,51.46
2019-05-01T03:21:41.402Z,50.31
2019-05-01T03:22:41.433Z,50.10
2019-05-01T03:23:41.384Z,49.56
2019-05-01T03:24:41.372Z,49.54
2019-05-01T03:25:41.363Z,49.23
2019-05-01T03:26:41.348Z,47.77
2019-05-01T03:27:41.335Z,47.52
2019-05-01T03:28:41.339Z,47.11
2019-05-01T03:29:41.315Z,46.15
2019-05-01T03:30:41.316Z,45.42
2019-05-01T03:31:41.309Z,46.34
2019-05-01T03:32:41.289Z,45.50
2019-05-01T03:33:41.282Z,45.17
2019-05-01T03:34:41.270Z,43.71
2019-05-01T03:35:41.249Z,43.69
2019-05-01T03:36:41.239Z,44.31
2019-05-01T03:37:41.227Z,42.34
2019-05-01T03:38:41.208Z,43.46
2019-05-01T03:39:41.209Z,42.13
2019-05-01T03:40:41.199Z,42.11
2019-05-01T03:41:41.179Z,41.78
2019-05-01T03:42:41.173Z,42.11
2019-05-01T03:43:41.161Z,41.99
2019-05-01T03:44:41.146Z,41.52
2019-05-01T03:45:41.161Z,42.66
2019-05-01T03:46:41.121Z,41.97
2019-05-01T03:47:41.114Z,44.29
2019-05-01T03:48:41.092Z,44.41
2019-05-01T03:49:41.086Z,45.25
2019-05-01T03:50:53.670Z,45.28
2019-05-01T03:51:41.068Z,45.09
2019-05-01T03:52:41.049Z,45.85
2019-05-01T03:53:41.044Z,45.95
2019-05-01T03:54:41.032Z,46.26
2019-05-01T03:55:41.033Z,46.58
2019-05-01T03:56:41.011Z,47.03
2019-05-01T03:57:40.998Z,47.34
2019-05-01T03:58:41.003Z,47.55
2019-05-01T03:59:40.977Z,48.06
2019-05-01T04:00:40.961Z,47.96
2019-05-01T04:01:40.986Z,47.85
2019-05-01T04:02:40.943Z,48.91
2019-05-01T04:03:40.933Z,47.98
2019-05-01T04:04:40.922Z,48.29
2019-05-01T04:05:40.920Z,49.01
2019-05-01T04:06:40.905Z,48.60
2019-05-01T04:07:40.934Z,49.22
2019-05-01T04:08:40.898Z,49.53
2019-05-01T04:09:40.868Z,49.32
2019-05-01T04:10:40.854Z,49.96
2019-05-01T04:11:40.838Z,48.83
2019-05-01T04:12:40.830Z,49.65
2019-05-01T04:13:40.955Z,49.14
2019-05-01T04:14:40.809Z,48.83
2019-05-01T04:15:40.797Z,48.70
2019-05-01T04:16:40.787Z,49.01
2019-05-01T04:17:40.770Z,48.08
2019-05-01T04:18:40.767Z,49.11
2019-05-01T04:19:40.789Z,48.70
2019-05-01T04:20:40.739Z,48.06
2019-05-01T04:21:52.266Z,47.85
2019-05-01T04:22:40.711Z,48.37
2019-05-01T04:23:40.703Z,47.88
2019-05-01T04:24:40.694Z,48.37
2019-05-01T04:25:40.697Z,48.16
2019-05-01T04:26:40.685Z,48.37
2019-05-01T04:27:40.655Z,48.06
2019-05-01T04:28:40.645Z,48.27
2019-05-01T04:29:40.652Z,47.88
2019-05-01T04:30:40.668Z,48.60
2019-05-01T04:31:40.619Z,48.27
2019-05-01T04:32:52.319Z,48.06
2019-05-01T04:33:41.592Z,47.63
2019-05-01T04:34:40.590Z,47.52
2019-05-01T04:35:40.566Z,47.73
2019-05-01T04:36:40.572Z,47.83
2019-05-01T04:37:40.542Z,47.19
2019-05-01T04:38:40.547Z,46.67
2019-05-01T04:39:40.534Z,47.19
2019-05-01T04:40:40.524Z,47.40
2019-05-01T04:41:40.537Z,46.97
2019-05-01T04:42:40.535Z,46.24
2019-05-01T04:43:40.483Z,45.73
2019-05-01T04:44:40.473Z,45.28
2019-05-01T04:45:40.470Z,44.82
2019-05-01T04:46:40.451Z,44.59
2019-05-01T04:47:40.440Z,42.97
2019-05-01T04:48:40.459Z,40.70
2019-05-01T04:49:40.416Z,37.99
2019-05-01T04:50:40.417Z,37.45
2019-05-01T04:51:40.393Z,37.57
2019-05-01T04:52:52.956Z,37.10
2019-05-01T04:53:40.368Z,36.83
2019-05-01T04:54:40.400Z,37.60
2019-05-01T04:55:40.384Z,39.09
2019-05-01T04:56:40.339Z,40.97
2019-05-01T04:57:40.331Z,40.99
2019-05-01T04:58:40.320Z,41.07
2019-05-01T04:59:40.399Z,40.68
2019-05-01T05:00:40.426Z,40.86
2019-05-01T05:01:40.288Z,40.76
2019-05-01T05:02:40.268Z,39.29
2019-05-01T05:03:40.254Z,39.28
2019-05-01T05:04:40.245Z,37.26
2019-05-01T05:05:40.239Z,34.95
2019-05-01T05:06:40.259Z,35.22
2019-05-01T05:07:40.210Z,34.17
2019-05-01T05:08:40.213Z,32.70
2019-05-01T05:09:40.191Z,32.93
2019-05-01T05:10:40.176Z,33.63
2019-05-01T05:11:40.165Z,32.38
2019-05-01T05:12:40.164Z,31.63
2019-05-01T05:13:40.144Z,30.90
2019-05-01T05:14:40.133Z,30.57
2019-05-01T05:15:40.121Z,30.55
2019-05-01T05:16:40.111Z,30.66
2019-05-01T05:17:40.213Z,30.54
2019-05-01T05:18:40.087Z,29.43
2019-05-01T05:19:40.076Z,29.11
2019-05-01T05:20:40.064Z,28.91
2019-05-01T05:21:40.699Z,29.37
2019-05-01T05:22:40.128Z,27.55
2019-05-01T05:23:51.804Z,27.01
2019-05-01T05:24:40.051Z,27.01
2019-05-01T05:25:40.034Z,27.43
2019-05-01T05:26:40.061Z,29.32
2019-05-01T05:27:39.997Z,30.90
2019-05-01T05:28:39.996Z,31.05
2019-05-01T05:29:39.964Z,32.41
2019-05-01T05:30:39.986Z,32.78
2019-05-01T05:31:39.945Z,34.03
2019-05-01T05:32:39.930Z,34.03
2019-05-01T05:33:39.947Z,33.54
2019-05-01T05:34:39.905Z,33.96
2019-05-01T05:35:39.898Z,35.11
2019-05-01T05:36:39.885Z,35.02
2019-05-01T05:37:39.887Z,35.39
2019-05-01T05:38:39.867Z,33.49
2019-05-01T05:39:39.921Z,32.43
2019-05-01T05:40:39.842Z,31.77
2019-05-01T05:41:39.826Z,30.80
2019-05-01T05:42:39.817Z,28.74
2019-05-01T05:43:39.807Z,28.52
2019-05-01T05:44:39.794Z,27.71
2019-05-01T05:45:39.864Z,29.02
2019-05-01T05:46:40.732Z,28.09
2019-05-01T05:47:39.768Z,28.06
2019-05-01T05:48:39.749Z,27.75
2019-05-01T05:49:39.747Z,27.73
2019-05-01T05:50:39.773Z,27.22
2019-05-01T05:51:39.762Z,26.71
2019-05-01T05:52:39.726Z,26.40
2019-05-01T05:53:39.704Z,26.57
2019-05-01T05:54:51.890Z,26.07
2019-05-01T05:55:39.672Z,26.35
2019-05-01T05:56:39.667Z,25.14
2019-05-01T05:57:39.663Z,25.02
2019-05-01T05:58:39.645Z,25.34
2019-05-01T05:59:39.629Z,24.33
2019-05-01T06:00:39.622Z,24.73
2019-05-01T06:01:39.633Z,25.48
2019-05-01T06:02:39.634Z,25.57
2019-05-01T06:03:39.594Z,25.79
2019-05-01T06:04:39.571Z,26.12
2019-05-01T06:05:39.559Z,25.81
2019-05-01T06:06:39.552Z,26.20
2019-05-01T06:07:39.544Z,24.67
2019-05-01T06:08:39.550Z,26.68
2019-05-01T06:09:39.520Z,25.57
2019-05-01T06:10:39.543Z,24.98
2019-05-01T06:11:39.501Z,25.59
2019-05-01T06:12:41.619Z,25.81
2019-05-01T06:13:40.521Z,26.32
2019-05-01T06:14:39.464Z,26.86
2019-05-01T06:15:41.144Z,27.91
2019-05-01T06:16:40.416Z,28.04
2019-05-01T06:17:39.435Z,29.19
2019-05-01T06:18:40.557Z,29.41
2019-05-01T06:19:39.469Z,29.93
2019-05-01T06:20:39.394Z,30.47
2019-05-01T06:21:39.435Z,31.38
2019-05-01T06:22:40.733Z,31.68
2019-05-01T06:23:40.367Z,31.70
2019-05-01T06:24:40.559Z,32.21
2019-05-01T06:25:54.099Z,31.62
2019-05-01T06:26:40.358Z,32.73
2019-05-01T06:27:39.337Z,31.80
2019-05-01T06:28:39.311Z,31.90
2019-05-01T06:29:39.320Z,31.99
2019-05-01T06:30:42.050Z,31.18
2019-05-01T06:31:40.317Z,31.40
2019-05-01T06:32:40.146Z,31.09
2019-05-01T06:33:44.288Z,30.79
2019-05-01T06:34:40.249Z,30.99
2019-05-01T06:35:39.473Z,31.80
2019-05-01T06:36:39.217Z,31.40
2019-05-01T06:37:39.214Z,31.80
2019-05-01T06:38:39.203Z,31.28
2019-05-01T06:39:42.760Z,31.18
2019-05-01T06:40:40.230Z,30.96
2019-05-01T06:41:42.566Z,31.47
2019-05-01T06:42:39.158Z,31.37
2019-05-01T06:43:39.142Z,31.47
2019-05-01T06:44:43.914Z,31.15
2019-05-01T06:45:40.113Z,31.56
2019-05-01T06:46:39.115Z,30.63
2019-05-01T06:47:43.064Z,31.54
2019-05-01T06:48:40.126Z,30.85
2019-05-01T06:49:39.072Z,31.37
2019-05-01T06:50:41.588Z,31.57
2019-05-01T06:51:39.056Z,32.18
2019-05-01T06:52:39.046Z,32.28
2019-05-01T06:53:39.879Z,31.68
2019-05-01T06:54:39.325Z,31.99
2019-05-01T06:55:39.006Z,31.60
2019-05-01T06:56:51.927Z,31.99
2019-05-01T06:57:43.721Z,32.18
2019-05-01T06:58:39.983Z,31.98
2019-05-01T06:59:39.006Z,32.28
2019-05-01T07:00:42.971Z,32.38
2019-05-01T07:01:39.975Z,31.57
2019-05-01T07:02:38.938Z,32.17
2019-05-01T07:03:40.733Z,31.47
2019-05-01T07:04:39.930Z,31.87
2019-05-01T07:05:38.895Z,31.98
2019-05-01T07:06:38.924Z,32.40
2019-05-01T07:07:38.880Z,31.98
2019-05-01T07:08:39.697Z,31.77
2019-05-01T07:09:38.855Z,31.66
2019-05-01T07:10:44.096Z,31.67
2019-05-01T07:11:42.261Z,31.87
2019-05-01T07:12:38.833Z,31.87
2019-05-01T07:13:39.993Z,32.99
2019-05-01T07:14:38.792Z,32.68
2019-05-01T07:15:38.789Z,31.96
2019-05-01T07:16:39.344Z,31.96
2019-05-01T07:17:38.850Z,31.76
2019-05-01T07:18:38.747Z,31.35
2019-05-01T07:19:40.346Z,32.37
2019-05-01T07:20:38.732Z,31.45
2019-05-01T07:21:38.718Z,31.67
2019-05-01T07:22:42.196Z,32.59
2019-05-01T07:23:38.694Z,31.67
2019-05-01T07:24:38.685Z,32.28
2019-05-01T07:25:39.506Z,32.37
2019-05-01T07:26:38.665Z,31.64
2019-05-01T07:27:54.027Z,32.34
2019-05-01T07:28:39.650Z,32.54
2019-05-01T07:29:39.895Z,31.64
2019-05-01T07:30:41.498Z,31.32
2019-05-01T07:31:38.608Z,31.64
2019-05-01T07:32:41.220Z,32.35
2019-05-01T07:33:38.588Z,33.07
2019-05-01T07:34:38.615Z,32.86
2019-05-01T07:35:38.572Z,32.96
2019-05-01T07:36:38.546Z,32.56
2019-05-01T07:37:38.533Z,32.54
2019-05-01T07:38:40.386Z,32.74
2019-05-01T07:39:38.527Z,32.64
2019-05-01T07:40:38.577Z,32.64
2019-05-01T07:41:39.004Z,32.23
2019-05-01T07:42:38.479Z,31.95
2019-05-01T07:43:38.471Z,31.95
2019-05-01T07:44:38.454Z,32.03
2019-05-01T07:45:39.010Z,31.42
2019-05-01T07:46:38.476Z,31.61
2019-05-01T07:47:38.425Z,31.70
2019-05-01T07:48:41.412Z,31.70
2019-05-01T07:49:38.405Z,31.60
2019-05-01T07:50:38.388Z,31.70
2019-05-01T07:51:42.387Z,31.70
2019-05-01T07:52:39.394Z,31.29
2019-05-01T07:53:38.356Z,31.40
2019-05-01T07:54:42.474Z,31.28
2019-05-01T07:55:39.340Z,31.29
2019-05-01T07:56:38.326Z,31.30
2019-05-01T07:57:39.670Z,31.61
2019-05-01T07:58:51.939Z,32.23
2019-05-01T07:59:38.288Z,31.41
2019-05-01T08:00:41.578Z,32.12
2019-05-01T08:01:38.264Z,32.32
2019-05-01T08:02:38.253Z,32.32
2019-05-01T08:03:42.616Z,31.71
2019-05-01T08:04:39.235Z,31.61
2019-05-01T08:05:40.752Z,31.41
2019-05-01T08:06:39.210Z,31.80
2019-05-01T08:07:38.225Z,31.29
2019-05-01T08:08:39.637Z,31.49
2019-05-01T08:09:38.196Z,31.68
2019-05-01T08:10:38.170Z,31.38
2019-05-01T08:11:39.255Z,31.60
2019-05-01T08:12:39.163Z,31.60
2019-05-01T08:13:38.134Z,31.68
2019-05-01T08:14:38.134Z,31.60
2019-05-01T08:15:38.173Z,31.19
2019-05-01T08:16:42.518Z,31.70
2019-05-01T08:17:39.101Z,31.61
2019-05-01T08:18:38.084Z,31.70
2019-05-01T08:19:39.517Z,31.88
2019-05-01T08:20:38.051Z,31.88
2019-05-01T08:21:38.091Z,31.38
2019-05-01T08:22:39.048Z,31.90
2019-05-01T08:23:38.029Z,32.09
2019-05-01T08:24:38.009Z,31.38
2019-05-01T08:25:38.003Z,31.28
2019-05-01T08:26:39.727Z,32.09
2019-05-01T08:27:39.019Z,31.68
2019-05-01T08:28:37.967Z,31.38
2019-05-01T08:29:50.727Z,31.88
2019-05-01T08:30:37.954Z,31.57
2019-05-01T08:31:37.943Z,31.46
2019-05-01T08:32:39.179Z,31.48
2019-05-01T08:33:37.943Z,32.10
2019-05-01T08:34:48.374Z,32.61
2019-05-01T08:35:38.923Z,32.10
2019-05-01T08:36:37.881Z,31.49
2019-05-01T08:37:37.961Z,31.29
2019-05-01T08:38:37.870Z,32.09
2019-05-01T08:39:39.743Z,31.48
2019-05-01T08:40:38.837Z,31.58
2019-05-01T08:41:37.878Z,31.78
2019-05-01T08:42:42.417Z,31.78
2019-05-01T08:43:38.809Z,31.88
2019-05-01T08:44:37.782Z,31.28
2019-05-01T08:45:40.795Z,32.59
2019-05-01T08:46:37.831Z,31.58
2019-05-01T08:47:38.425Z,32.29
2019-05-01T08:48:37.825Z,32.29
2019-05-01T08:49:42.254Z,31.37
2019-05-01T08:50:38.724Z,32.59
2019-05-01T08:51:37.705Z,32.70
2019-05-01T08:52:37.707Z,32.09
2019-05-01T08:53:37.688Z,31.48
2019-05-01T08:54:37.678Z,31.49
2019-05-01T08:55:39.830Z,32.50
2019-05-01T08:56:38.649Z,32.39
2019-05-01T08:57:39.587Z,32.59
2019-05-01T08:58:37.635Z,31.28
2019-05-01T08:59:37.617Z,31.60
2019-05-01T09:00:49.188Z,32.73
2019-05-01T09:01:37.598Z,33.13
2019-05-01T09:02:41.621Z,33.12
2019-05-01T09:03:38.608Z,33.30
2019-05-01T09:04:37.565Z,33.10
2019-05-01T09:05:37.554Z,32.39
2019-05-01T09:06:39.374Z,32.70
2019-05-01T09:07:38.605Z,32.48
2019-05-01T09:08:37.542Z,31.97
2019-05-01T09:09:39.840Z,31.35
2019-05-01T09:10:38.495Z,31.37
2019-05-01T09:11:37.514Z,31.35
2019-05-01T09:12:37.477Z,31.35
2019-05-01T09:13:37.510Z,31.35
2019-05-01T09:14:37.453Z,31.23
2019-05-01T09:15:37.448Z,32.14
2019-05-01T09:16:37.428Z,31.76
2019-05-01T09:17:37.438Z,30.93
2019-05-01T09:18:37.412Z,31.43
2019-05-01T09:19:37.419Z,31.43
2019-05-01T09:20:37.391Z,31.05
2019-05-01T09:21:38.136Z,32.06
2019-05-01T09:22:37.362Z,31.54
2019-05-01T09:23:37.362Z,31.35
2019-05-01T09:24:37.357Z,32.36
2019-05-01T09:25:37.378Z,31.74
2019-05-01T09:26:37.323Z,32.16
2019-05-01T09:27:37.306Z,31.45
2019-05-01T09:28:39.827Z,31.13
2019-05-01T09:29:37.287Z,31.43
2019-05-01T09:30:37.276Z,31.76
2019-05-01T09:31:52.596Z,31.65
2019-05-01T09:32:37.265Z,31.25
2019-05-01T09:33:37.299Z,31.45
2019-05-01T09:34:37.252Z,31.03
2019-05-01T09:35:40.364Z,31.15
2019-05-01T09:36:38.211Z,30.74
2019-05-01T09:37:37.221Z,31.26
2019-05-01T09:38:37.187Z,31.16
2019-05-01T09:39:37.169Z,30.86
2019-05-01T09:40:37.161Z,31.37
2019-05-01T09:41:38.716Z,31.15
2019-05-01T09:42:37.135Z,30.54
2019-05-01T09:43:37.159Z,30.94
2019-05-01T09:44:37.114Z,30.55
2019-05-01T09:45:37.112Z,30.74
2019-05-01T09:46:37.097Z,30.74
2019-05-01T09:47:37.121Z,30.54
2019-05-01T09:48:37.072Z,30.34
2019-05-01T09:49:37.067Z,30.24
2019-05-01T09:50:37.048Z,29.93
2019-05-01T09:51:37.051Z,30.64
2019-05-01T09:52:37.031Z,30.44
2019-05-01T09:53:37.050Z,29.33
2019-05-01T09:54:37.040Z,30.24
2019-05-01T09:55:37.000Z,29.02
2019-05-01T09:56:38.455Z,29.13
2019-05-01T09:57:41.282Z,29.14
2019-05-01T09:58:37.979Z,29.14
2019-05-01T09:59:36.995Z,29.53
2019-05-01T10:00:36.946Z,28.82
2019-05-01T10:01:36.924Z,29.11
2019-05-01T10:02:48.367Z,29.72
2019-05-01T10:03:36.944Z,29.32
2019-05-01T10:04:36.909Z,27.98
2019-05-01T10:05:37.998Z,28.89
2019-05-01T10:06:37.889Z,28.10
2019-05-01T10:07:36.863Z,28.41
2019-05-01T10:08:39.932Z,28.61
2019-05-01T10:09:36.838Z,28.31
2019-05-01T10:10:37.176Z,28.92
2019-05-01T10:11:40.723Z,29.53
2019-05-01T10:12:41.802Z,28.82
2019-05-01T10:13:37.798Z,29.02
2019-05-01T10:14:37.507Z,28.81
2019-05-01T10:15:36.894Z,28.20
2019-05-01T10:16:36.814Z,29.21
2019-05-01T10:17:36.752Z,27.19
2019-05-01T10:18:36.737Z,27.10
2019-05-01T10:19:36.728Z,27.61
2019-05-01T10:20:36.729Z,27.30
2019-05-01T10:21:36.703Z,27.71
2019-05-01T10:22:37.538Z,28.72
2019-05-01T10:23:36.681Z,28.52
2019-05-01T10:24:37.625Z,27.30
2019-05-01T10:25:36.661Z,28.22
2019-05-01T10:26:36.645Z,27.91
2019-05-01T10:27:37.441Z,27.61
2019-05-01T10:28:36.621Z,27.40
2019-05-01T10:29:36.617Z,28.22
2019-05-01T10:30:37.551Z,28.20
2019-05-01T10:31:36.589Z,27.50
2019-05-01T10:32:36.578Z,27.40
2019-05-01T10:33:49.655Z,27.62
2019-05-01T10:34:38.616Z,28.63
2019-05-01T10:35:43.074Z,28.92
2019-05-01T10:36:37.551Z,28.23
2019-05-01T10:37:36.534Z,28.63
2019-05-01T10:38:39.924Z,28.43
2019-05-01T10:39:37.620Z,28.82
2019-05-01T10:40:36.507Z,27.72
2019-05-01T10:41:36.498Z,27.82
2019-05-01T10:42:36.472Z,27.73
2019-05-01T10:43:36.456Z,27.92
2019-05-01T10:44:36.456Z,28.23
2019-05-01T10:45:36.445Z,28.24
2019-05-01T10:46:36.429Z,27.42
2019-05-01T10:47:36.412Z,27.82
2019-05-01T10:48:36.399Z,27.51
2019-05-01T10:49:36.404Z,27.42
2019-05-01T10:50:36.388Z,27.72
2019-05-01T10:51:36.372Z,28.03
2019-05-01T10:52:36.359Z,27.71
2019-05-01T10:53:36.343Z,27.40
2019-05-01T10:54:36.336Z,27.91
2019-05-01T10:55:36.360Z,27.72
2019-05-01T10:56:36.309Z,27.61
2019-05-01T10:57:40.244Z,27.40
2019-05-01T10:58:37.324Z,27.71
2019-05-01T10:59:36.284Z,26.80
2019-05-01T11:00:36.265Z,26.90
2019-05-01T11:01:36.353Z,26.90
2019-05-01T11:02:36.310Z,27.51
2019-05-01T11:03:36.233Z,27.40
2019-05-01T11:04:48.631Z,27.30
2019-05-01T11:05:36.211Z,27.51
2019-05-01T11:06:36.210Z,27.19
2019-05-01T11:07:36.228Z,27.50
2019-05-01T11:08:36.181Z,26.39
2019-05-01T11:09:36.171Z,26.81
2019-05-01T11:10:36.204Z,27.01
2019-05-01T11:11:36.142Z,27.32
2019-05-01T11:12:36.132Z,27.92
2019-05-01T11:13:36.167Z,27.42
2019-05-01T11:14:36.114Z,27.51
2019-05-01T11:15:36.160Z,27.61
2019-05-01T11:16:36.092Z,27.51
2019-05-01T11:17:36.081Z,27.29
2019-05-01T11:18:36.065Z,26.28
2019-05-01T11:19:36.106Z,26.50
2019-05-01T11:20:36.047Z,27.01
2019-05-01T11:21:36.039Z,27.61
2019-05-01T11:22:36.023Z,27.01
2019-05-01T11:23:36.022Z,26.71
2019-05-01T11:24:35.999Z,26.71
2019-05-01T11:25:36.029Z,27.11
2019-05-01T11:26:35.983Z,27.23
2019-05-01T11:27:35.976Z,27.73
2019-05-01T11:28:35.955Z,28.03
2019-05-01T11:29:35.942Z,27.01
2019-05-01T11:30:35.939Z,27.23
2019-05-01T11:31:35.963Z,27.43
2019-05-01T11:32:35.910Z,27.84
2019-05-01T11:33:35.902Z,27.63
2019-05-01T11:34:35.898Z,27.53
2019-05-01T11:35:48.232Z,27.53
2019-05-01T11:36:35.883Z,27.13
2019-05-01T11:37:35.907Z,27.84
2019-05-01T11:38:35.872Z,27.13
2019-05-01T11:39:40.339Z,27.53
2019-05-01T11:40:36.856Z,27.73
2019-05-01T11:41:35.814Z,26.82
2019-05-01T11:42:35.805Z,27.63
2019-05-01T11:43:35.822Z,27.14
2019-05-01T11:44:35.777Z,27.95
2019-05-01T11:45:35.771Z,27.55
2019-05-01T11:46:35.760Z,27.85
2019-05-01T11:47:35.828Z,27.34
2019-05-01T11:48:35.762Z,27.75
2019-05-01T11:49:35.754Z,27.34
2019-05-01T11:50:35.715Z,27.55
2019-05-01T11:51:35.708Z,27.44
2019-05-01T11:52:35.691Z,27.75
2019-05-01T11:53:35.681Z,27.75
2019-05-01T11:54:35.668Z,27.73
2019-05-01T11:55:35.699Z,27.52
2019-05-01T11:56:35.646Z,27.11
2019-05-01T11:57:35.642Z,27.40
2019-05-01T11:58:35.628Z,27.71
2019-05-01T11:59:35.611Z,27.30
2019-05-01T12:00:35.600Z,27.51
2019-05-01T12:01:35.644Z,27.30
2019-05-01T12:02:35.575Z,27.62
2019-05-01T12:03:35.573Z,28.11
2019-05-01T12:04:35.555Z,27.32
2019-05-01T12:05:35.541Z,28.14
2019-05-01T12:06:48.755Z,28.75
2019-05-01T12:07:35.543Z,29.86
2019-05-01T12:08:35.533Z,29.56
2019-05-01T12:09:35.673Z,29.96
2019-05-01T12:10:35.536Z,29.15
2019-05-01T12:11:35.479Z,29.44
2019-05-01T12:12:35.486Z,28.83
2019-05-01T12:13:43.507Z,29.54
2019-05-01T12:14:36.515Z,28.75
2019-05-01T12:15:35.442Z,28.83
2019-05-01T12:16:35.491Z,29.56
2019-05-01T12:17:35.416Z,28.12
2019-05-01T12:18:35.403Z,28.53
2019-05-01T12:19:35.398Z,28.23
2019-05-01T12:20:35.386Z,28.24
2019-05-01T12:21:35.366Z,28.75
2019-05-01T12:22:35.403Z,29.15
2019-05-01T12:23:35.377Z,29.05
2019-05-01T12:24:35.337Z,29.05
2019-05-01T12:25:35.326Z,28.85
2019-05-01T12:26:36.141Z,29.05
2019-05-01T12:27:35.298Z,28.76
2019-05-01T12:28:35.310Z,28.75
2019-05-01T12:29:35.281Z,28.75
2019-05-01T12:30:35.273Z,29.27
2019-05-01T12:31:35.268Z,29.46
2019-05-01T12:32:35.317Z,28.85
2019-05-01T12:33:35.671Z,29.05
2019-05-01T12:34:35.264Z,29.66
2019-05-01T12:35:35.208Z,29.56
2019-05-01T12:36:36.675Z,29.46
2019-05-01T12:37:48.329Z,29.14
2019-05-01T12:38:35.221Z,29.24
2019-05-01T12:39:35.189Z,29.03
2019-05-01T12:40:35.217Z,28.63
2019-05-01T12:41:35.151Z,28.75
2019-05-01T12:42:35.193Z,29.35
2019-05-01T12:43:35.145Z,27.53
2019-05-01T12:44:35.113Z,28.95
2019-05-01T12:45:35.099Z,28.64
2019-05-01T12:46:35.098Z,28.95
2019-05-01T12:47:37.919Z,28.85
2019-05-01T12:48:35.074Z,29.05
2019-05-01T12:49:35.058Z,29.05
2019-05-01T12:50:35.049Z,28.85
2019-05-01T12:51:35.073Z,29.27
2019-05-01T12:52:35.032Z,29.06